sensor_id;sensor_type;location;lat;lon;timestamp;pressure;altitude;pressure_sealevel;temperature;humidity
81897;BME280;71360;43.506;1.500;2023-08-30T00:02:15;98709.94;;;15.09;67.95
81897;BME280;71360;43.506;1.500;2023-08-30T00:04:42;98718.72;;;15.11;67.62
81897;BME280;71360;43.506;1.500;2023-08-30T00:07:07;98718.63;;;15.12;68.02
81897;BME280;71360;43.506;1.500;2023-08-30T00:09:33;98715.94;;;15.12;67.83
81897;BME280;71360;43.506;1.500;2023-08-30T00:11:58;98719.34;;;15.14;67.81
81897;BME280;71360;43.506;1.500;2023-08-30T00:14:24;98714.81;;;15.15;67.88
81897;BME280;71360;43.506;1.500;2023-08-30T00:16:49;98707.25;;;15.20;67.70
81897;BME280;71360;43.506;1.500;2023-08-30T00:19:15;98705.31;;;15.22;67.87
81897;BME280;71360;43.506;1.500;2023-08-30T00:21:41;98700.78;;;15.23;68.17
81897;BME280;71360;43.506;1.500;2023-08-30T00:24:06;98698.97;;;15.23;67.75
81897;BME280;71360;43.506;1.500;2023-08-30T00:26:32;98688.91;;;15.25;67.93
81897;BME280;71360;43.506;1.500;2023-08-30T00:28:57;98691.22;;;15.30;67.64
81897;BME280;71360;43.506;1.500;2023-08-30T00:31:23;98691.13;;;15.31;67.95
81897;BME280;71360;43.506;1.500;2023-08-30T00:33:48;98691.84;;;15.33;67.91
81897;BME280;71360;43.506;1.500;2023-08-30T00:36:14;98679.97;;;15.36;68.15
81897;BME280;71360;43.506;1.500;2023-08-30T00:38:40;98690.75;;;15.36;68.15
81897;BME280;71360;43.506;1.500;2023-08-30T00:41:05;98682.69;;;15.36;68.11
81897;BME280;71360;43.506;1.500;2023-08-30T00:43:30;98680.81;;;15.36;68.24
81897;BME280;71360;43.506;1.500;2023-08-30T00:45:56;98679.84;;;15.38;68.11
81897;BME280;71360;43.506;1.500;2023-08-30T00:48:22;98679.59;;;15.41;68.22
81897;BME280;71360;43.506;1.500;2023-08-30T00:50:48;98675.22;;;15.40;68.14
81897;BME280;71360;43.506;1.500;2023-08-30T00:53:14;98673.25;;;15.42;68.26
81897;BME280;71360;43.506;1.500;2023-08-30T00:55:41;98673.00;;;15.45;67.99
81897;BME280;71360;43.506;1.500;2023-08-30T00:58:07;98667.59;;;15.45;67.72
81897;BME280;71360;43.506;1.500;2023-08-30T01:00:33;98659.66;;;15.43;67.69
81897;BME280;71360;43.506;1.500;2023-08-30T01:02:59;98658.19;;;15.39;68.15
81897;BME280;71360;43.506;1.500;2023-08-30T01:05:24;98652.22;;;15.35;68.32
81897;BME280;71360;43.506;1.500;2023-08-30T01:07:53;98649.66;;;15.34;68.26
81897;BME280;71360;43.506;1.500;2023-08-30T01:10:25;98645.38;;;15.31;68.52
81897;BME280;71360;43.506;1.500;2023-08-30T01:12:58;98647.44;;;15.28;68.72
81897;BME280;71360;43.506;1.500;2023-08-30T01:15:27;98644.00;;;15.26;68.40
81897;BME280;71360;43.506;1.500;2023-08-30T01:17:54;98645.00;;;15.25;68.47
81897;BME280;71360;43.506;1.500;2023-08-30T01:20:21;98644.38;;;15.21;69.07
81897;BME280;71360;43.506;1.500;2023-08-30T01:23:06;98646.56;;;15.16;69.15
81897;BME280;71360;43.506;1.500;2023-08-30T01:25:47;98643.16;;;15.14;69.42
81897;BME280;71360;43.506;1.500;2023-08-30T01:28:19;98639.59;;;15.13;69.50
81897;BME280;71360;43.506;1.500;2023-08-30T01:30:46;98640.59;;;15.12;69.57
81897;BME280;71360;43.506;1.500;2023-08-30T01:33:15;98634.31;;;15.12;69.68
81897;BME280;71360;43.506;1.500;2023-08-30T01:35:43;98634.19;;;15.13;69.60
81897;BME280;71360;43.506;1.500;2023-08-30T01:38:09;98634.06;;;15.15;69.85
81897;BME280;71360;43.506;1.500;2023-08-30T01:40:38;98630.28;;;15.17;69.51
81897;BME280;71360;43.506;1.500;2023-08-30T01:43:06;98631.88;;;15.20;70.00
81897;BME280;71360;43.506;1.500;2023-08-30T01:45:39;98631.66;;;15.23;69.71
81897;BME280;71360;43.506;1.500;2023-08-30T01:48:07;98625.28;;;15.24;69.85
81897;BME280;71360;43.506;1.500;2023-08-30T01:50:34;98626.88;;;15.27;69.89
81897;BME280;71360;43.506;1.500;2023-08-30T01:53:00;98619.66;;;15.27;69.28
81897;BME280;71360;43.506;1.500;2023-08-30T01:55:28;98634.81;;;15.28;69.49
81897;BME280;71360;43.506;1.500;2023-08-30T01:57:54;98633.97;;;15.28;69.64
81897;BME280;71360;43.506;1.500;2023-08-30T02:00:20;98632.13;;;15.28;69.34
81897;BME280;71360;43.506;1.500;2023-08-30T02:02:47;98628.47;;;15.29;70.08
81897;BME280;71360;43.506;1.500;2023-08-30T02:05:13;98628.47;;;15.29;69.65
81897;BME280;71360;43.506;1.500;2023-08-30T02:08:04;98630.44;;;15.27;69.96
81897;BME280;71360;43.506;1.500;2023-08-30T02:10:35;98626.03;;;15.26;70.05
81897;BME280;71360;43.506;1.500;2023-08-30T02:13:04;98618.06;;;15.25;70.20
81897;BME280;71360;43.506;1.500;2023-08-30T02:15:31;98620.63;;;15.26;70.19
81897;BME280;71360;43.506;1.500;2023-08-30T02:17:59;98622.34;;;15.27;70.10
81897;BME280;71360;43.506;1.500;2023-08-30T02:20:25;98623.06;;;15.29;70.14
81897;BME280;71360;43.506;1.500;2023-08-30T02:22:51;98621.34;;;15.28;69.98
81897;BME280;71360;43.506;1.500;2023-08-30T02:25:16;98614.16;;;15.29;69.96
81897;BME280;71360;43.506;1.500;2023-08-30T02:27:42;98610.47;;;15.30;69.97
81897;BME280;71360;43.506;1.500;2023-08-30T02:30:07;98600.56;;;15.30;69.81
81897;BME280;71360;43.506;1.500;2023-08-30T02:32:33;98598.72;;;15.31;70.05
81897;BME280;71360;43.506;1.500;2023-08-30T02:34:59;98606.78;;;15.31;70.08
81897;BME280;71360;43.506;1.500;2023-08-30T02:37:24;98606.22;;;15.27;70.08
81897;BME280;71360;43.506;1.500;2023-08-30T02:39:50;98614.28;;;15.27;70.14
81897;BME280;71360;43.506;1.500;2023-08-30T02:42:16;98616.22;;;15.25;70.60
81897;BME280;71360;43.506;1.500;2023-08-30T02:44:41;98621.00;;;15.22;70.36
81897;BME280;71360;43.506;1.500;2023-08-30T02:47:07;98607.66;;;15.20;70.78
81897;BME280;71360;43.506;1.500;2023-08-30T02:49:32;98612.91;;;15.22;70.71
81897;BME280;71360;43.506;1.500;2023-08-30T02:51:58;98613.78;;;15.22;71.03
81897;BME280;71360;43.506;1.500;2023-08-30T02:54:23;98608.41;;;15.22;70.72
81897;BME280;71360;43.506;1.500;2023-08-30T02:56:49;98602.16;;;15.22;71.07
81897;BME280;71360;43.506;1.500;2023-08-30T02:59:15;98604.75;;;15.23;71.30
81897;BME280;71360;43.506;1.500;2023-08-30T03:01:41;98601.03;;;15.24;71.13
81897;BME280;71360;43.506;1.500;2023-08-30T03:04:07;98601.66;;;15.28;71.26
81897;BME280;71360;43.506;1.500;2023-08-30T03:06:33;98598.84;;;15.29;71.38
81897;BME280;71360;43.506;1.500;2023-08-30T03:08:59;98593.34;;;15.31;71.45
81897;BME280;71360;43.506;1.500;2023-08-30T03:11:24;98593.22;;;15.32;71.61
81897;BME280;71360;43.506;1.500;2023-08-30T03:13:49;98600.19;;;15.35;71.31
81897;BME280;71360;43.506;1.500;2023-08-30T03:16:16;98602.75;;;15.36;71.20
81897;BME280;71360;43.506;1.500;2023-08-30T03:18:43;98595.69;;;15.35;71.66
81897;BME280;71360;43.506;1.500;2023-08-30T03:21:09;98596.53;;;15.36;71.39
81897;BME280;71360;43.506;1.500;2023-08-30T03:23:35;98603.75;;;15.35;71.17
81897;BME280;71360;43.506;1.500;2023-08-30T03:26:11;98602.88;;;15.35;71.53
81897;BME280;71360;43.506;1.500;2023-08-30T03:28:37;98603.00;;;15.33;71.34
81897;BME280;71360;43.506;1.500;2023-08-30T03:31:19;98602.28;;;15.31;71.60
81897;BME280;71360;43.506;1.500;2023-08-30T03:33:47;98606.78;;;15.31;71.71
81897;BME280;71360;43.506;1.500;2023-08-30T03:36:14;98597.75;;;15.32;71.56
81897;BME280;71360;43.506;1.500;2023-08-30T03:38:40;98602.28;;;15.31;72.04
81897;BME280;71360;43.506;1.500;2023-08-30T03:41:06;98608.50;;;15.32;72.11
81897;BME280;71360;43.506;1.500;2023-08-30T03:43:32;98598.50;;;15.34;71.95
81897;BME280;71360;43.506;1.500;2023-08-30T03:45:59;98593.13;;;15.34;72.08
81897;BME280;71360;43.506;1.500;2023-08-30T03:48:27;98599.34;;;15.34;72.23
81897;BME280;71360;43.506;1.500;2023-08-30T03:50:53;98602.03;;;15.34;71.92
81897;BME280;71360;43.506;1.500;2023-08-30T03:53:19;98597.50;;;15.35;72.05
81897;BME280;71360;43.506;1.500;2023-08-30T03:55:45;98596.78;;;15.33;72.12
81897;BME280;71360;43.506;1.500;2023-08-30T03:58:10;98588.69;;;15.33;72.18
81897;BME280;71360;43.506;1.500;2023-08-30T04:00:36;98594.94;;;15.33;72.18
81897;BME280;71360;43.506;1.500;2023-08-30T04:03:03;98595.81;;;15.34;72.15
81897;BME280;71360;43.506;1.500;2023-08-30T04:05:33;98595.53;;;15.37;72.19
81897;BME280;71360;43.506;1.500;2023-08-30T04:07:59;98594.56;;;15.38;72.22
81897;BME280;71360;43.506;1.500;2023-08-30T04:10:24;98593.44;;;15.41;72.43
81897;BME280;71360;43.506;1.500;2023-08-30T04:12:50;98591.50;;;15.43;72.12
81897;BME280;71360;43.506;1.500;2023-08-30T04:15:16;98586.97;;;15.43;72.02
81897;BME280;71360;43.506;1.500;2023-08-30T04:17:41;98585.84;;;15.46;71.98
81897;BME280;71360;43.506;1.500;2023-08-30T04:20:08;98590.25;;;15.47;72.30
81897;BME280;71360;43.506;1.500;2023-08-30T04:22:35;98576.66;;;15.48;71.78
81897;BME280;71360;43.506;1.500;2023-08-30T04:25:01;98581.94;;;15.50;71.87
81897;BME280;71360;43.506;1.500;2023-08-30T04:27:27;98582.69;;;15.52;71.69
81897;BME280;71360;43.506;1.500;2023-08-30T04:29:53;98582.41;;;15.55;71.51
81897;BME280;71360;43.506;1.500;2023-08-30T04:32:18;98589.53;;;15.56;71.51
81897;BME280;71360;43.506;1.500;2023-08-30T04:34:43;98593.94;;;15.57;71.23
81897;BME280;71360;43.506;1.500;2023-08-30T04:37:09;98592.09;;;15.58;71.17
81897;BME280;71360;43.506;1.500;2023-08-30T04:39:34;98591.13;;;15.59;71.28
81897;BME280;71360;43.506;1.500;2023-08-30T04:42:00;98586.56;;;15.59;71.06
81897;BME280;71360;43.506;1.500;2023-08-30T04:44:27;98582.03;;;15.60;71.40
81897;BME280;71360;43.506;1.500;2023-08-30T04:46:54;98587.31;;;15.61;71.05
81897;BME280;71360;43.506;1.500;2023-08-30T04:49:19;98576.53;;;15.61;71.01
81897;BME280;71360;43.506;1.500;2023-08-30T04:51:45;98585.34;;;15.63;70.98
81897;BME280;71360;43.506;1.500;2023-08-30T04:54:10;98584.50;;;15.63;71.10
81897;BME280;71360;43.506;1.500;2023-08-30T04:56:36;98585.34;;;15.63;70.84
81897;BME280;71360;43.506;1.500;2023-08-30T04:59:01;98588.03;;;15.63;70.81
81897;BME280;71360;43.506;1.500;2023-08-30T05:01:29;98576.28;;;15.64;70.64
81897;BME280;71360;43.506;1.500;2023-08-30T05:03:55;98585.06;;;15.66;70.66
81897;BME280;71360;43.506;1.500;2023-08-30T05:06:21;98583.38;;;15.65;70.70
81897;BME280;71360;43.506;1.500;2023-08-30T05:08:46;98584.38;;;15.64;70.85
81897;BME280;71360;43.506;1.500;2023-08-30T05:11:12;98581.66;;;15.64;70.62
81897;BME280;71360;43.506;1.500;2023-08-30T05:13:37;98579.94;;;15.63;70.67
81897;BME280;71360;43.506;1.500;2023-08-30T05:16:03;98576.53;;;15.61;71.02
81897;BME280;71360;43.506;1.500;2023-08-30T05:18:29;98585.59;;;15.60;71.14
81897;BME280;71360;43.506;1.500;2023-08-30T05:20:54;98580.47;;;15.57;71.13
81897;BME280;71360;43.506;1.500;2023-08-30T05:23:19;98580.69;;;15.54;71.44
81897;BME280;71360;43.506;1.500;2023-08-30T05:25:45;98581.94;;;15.50;71.28
81897;BME280;71360;43.506;1.500;2023-08-30T05:28:12;98584.03;;;15.46;71.46
81897;BME280;71360;43.506;1.500;2023-08-30T05:30:41;98585.13;;;15.44;71.74
81897;BME280;71360;43.506;1.500;2023-08-30T05:33:06;98585.38;;;15.41;71.98
81897;BME280;71360;43.506;1.500;2023-08-30T05:35:32;98586.50;;;15.38;72.09
81897;BME280;71360;43.506;1.500;2023-08-30T05:37:57;98592.09;;;15.35;72.24
81897;BME280;71360;43.506;1.500;2023-08-30T05:40:23;98595.81;;;15.34;72.44
81897;BME280;71360;43.506;1.500;2023-08-30T05:42:49;98592.38;;;15.32;72.55
81897;BME280;71360;43.506;1.500;2023-08-30T05:45:16;98588.94;;;15.30;72.76
81897;BME280;71360;43.506;1.500;2023-08-30T05:47:41;98595.19;;;15.30;72.60
81897;BME280;71360;43.506;1.500;2023-08-30T05:50:07;98588.94;;;15.30;72.44
81897;BME280;71360;43.506;1.500;2023-08-30T05:52:33;98588.81;;;15.31;72.29
81897;BME280;71360;43.506;1.500;2023-08-30T05:54:58;98592.38;;;15.32;72.53
81897;BME280;71360;43.506;1.500;2023-08-30T05:57:24;98587.81;;;15.32;72.41
81897;BME280;71360;43.506;1.500;2023-08-30T05:59:50;98591.53;;;15.31;72.46
81897;BME280;71360;43.506;1.500;2023-08-30T06:02:16;98596.91;;;15.31;72.97
81897;BME280;71360;43.506;1.500;2023-08-30T06:04:42;98597.75;;;15.32;72.93
81897;BME280;71360;43.506;1.500;2023-08-30T06:07:07;98602.03;;;15.34;73.09
81897;BME280;71360;43.506;1.500;2023-08-30T06:09:33;98597.38;;;15.36;73.14
81897;BME280;71360;43.506;1.500;2023-08-30T06:11:59;98602.75;;;15.36;72.95
81897;BME280;71360;43.506;1.500;2023-08-30T06:14:25;98608.88;;;15.39;73.08
81897;BME280;71360;43.506;1.500;2023-08-30T06:16:50;98608.88;;;15.39;73.00
81897;BME280;71360;43.506;1.500;2023-08-30T06:19:16;98610.47;;;15.41;72.99
81897;BME280;71360;43.506;1.500;2023-08-30T06:21:41;98613.03;;;15.43;72.88
81897;BME280;71360;43.506;1.500;2023-08-30T06:24:07;98609.13;;;15.47;73.18
81897;BME280;71360;43.506;1.500;2023-08-30T06:26:32;98618.66;;;15.51;72.76
81897;BME280;71360;43.506;1.500;2023-08-30T06:28:58;98605.69;;;15.56;73.14
81897;BME280;71360;43.506;1.500;2023-08-30T06:31:24;98611.56;;;15.61;72.48
81897;BME280;71360;43.506;1.500;2023-08-30T06:33:52;98616.28;;;15.69;72.46
81897;BME280;71360;43.506;1.500;2023-08-30T06:36:18;98604.16;;;15.75;72.75
81897;BME280;71360;43.506;1.500;2023-08-30T06:38:43;98603.94;;;15.78;72.06
81897;BME280;71360;43.506;1.500;2023-08-30T06:41:09;98610.53;;;15.85;72.21
81897;BME280;71360;43.506;1.500;2023-08-30T06:43:34;98605.63;;;15.90;71.99
81897;BME280;71360;43.506;1.500;2023-08-30T06:46:00;98598.75;;;15.97;71.60
81897;BME280;71360;43.506;1.500;2023-08-30T06:48:25;98604.47;;;16.04;71.45
81897;BME280;71360;43.506;1.500;2023-08-30T06:50:51;98606.56;;;16.12;71.19
81897;BME280;71360;43.506;1.500;2023-08-30T06:53:17;98604.34;;;16.17;71.05
81897;BME280;71360;43.506;1.500;2023-08-30T06:55:42;98615.31;;;16.25;70.97
81897;BME280;71360;43.506;1.500;2023-08-30T06:58:08;98614.09;;;16.29;70.16
81897;BME280;71360;43.506;1.500;2023-08-30T07:00:33;98607.53;;;16.32;70.90
81897;BME280;71360;43.506;1.500;2023-08-30T07:02:59;98605.31;;;16.37;70.60
81897;BME280;71360;43.506;1.500;2023-08-30T07:05:24;98605.66;;;16.44;70.43
81897;BME280;71360;43.506;1.500;2023-08-30T07:07:50;98604.19;;;16.51;70.12
81897;BME280;71360;43.506;1.500;2023-08-30T07:10:16;98610.00;;;16.56;70.26
81897;BME280;71360;43.506;1.500;2023-08-30T07:12:41;98616.59;;;16.63;70.10
81897;BME280;71360;43.506;1.500;2023-08-30T07:15:07;98615.09;;;16.70;70.22
81897;BME280;71360;43.506;1.500;2023-08-30T07:17:33;98613.84;;;16.75;69.70
81897;BME280;71360;43.506;1.500;2023-08-30T07:19:58;98611.59;;;16.80;69.45
81897;BME280;71360;43.506;1.500;2023-08-30T07:22:24;98610.34;;;16.84;69.21
81897;BME280;71360;43.506;1.500;2023-08-30T07:24:49;98604.28;;;16.92;69.16
81897;BME280;71360;43.506;1.500;2023-08-30T07:27:15;98609.03;;;16.99;69.27
81897;BME280;71360;43.506;1.500;2023-08-30T07:29:40;98611.91;;;17.08;68.85
81897;BME280;71360;43.506;1.500;2023-08-30T07:32:09;98622.06;;;17.15;68.41
81897;BME280;71360;43.506;1.500;2023-08-30T07:34:35;98619.66;;;17.22;68.20
81897;BME280;71360;43.506;1.500;2023-08-30T07:37:01;98620.81;;;17.29;67.74
81897;BME280;71360;43.506;1.500;2023-08-30T07:39:27;98613.19;;;17.34;67.72
81897;BME280;71360;43.506;1.500;2023-08-30T07:41:52;98618.16;;;17.39;67.48
81897;BME280;71360;43.506;1.500;2023-08-30T07:44:18;98618.47;;;17.46;67.20
81897;BME280;71360;43.506;1.500;2023-08-30T07:46:45;98618.22;;;17.49;66.85
81897;BME280;71360;43.506;1.500;2023-08-30T07:49:10;98621.34;;;17.54;66.73
81897;BME280;71360;43.506;1.500;2023-08-30T07:51:36;98624.50;;;17.59;66.43
81897;BME280;71360;43.506;1.500;2023-08-30T07:54:01;98615.41;;;17.60;66.03
81897;BME280;71360;43.506;1.500;2023-08-30T07:56:26;98618.81;;;17.62;66.09
81897;BME280;71360;43.506;1.500;2023-08-30T07:58:53;98619.41;;;17.66;65.66
81897;BME280;71360;43.506;1.500;2023-08-30T08:01:19;98620.97;;;17.68;65.54
81897;BME280;71360;43.506;1.500;2023-08-30T08:03:44;98617.84;;;17.73;65.60
81897;BME280;71360;43.506;1.500;2023-08-30T08:06:10;98613.72;;;17.79;65.66
81897;BME280;71360;43.506;1.500;2023-08-30T08:08:36;98618.31;;;17.88;65.52
81897;BME280;71360;43.506;1.500;2023-08-30T08:11:01;98609.25;;;17.99;65.29
81897;BME280;71360;43.506;1.500;2023-08-30T08:13:27;98612.69;;;18.11;65.04
81897;BME280;71360;43.506;1.500;2023-08-30T08:15:55;98624.94;;;18.25;64.69
81897;BME280;71360;43.506;1.500;2023-08-30T08:18:21;98625.22;;;18.31;64.18
81897;BME280;71360;43.506;1.500;2023-08-30T08:20:46;98628.94;;;18.40;64.14
81897;BME280;71360;43.506;1.500;2023-08-30T08:23:12;98630.91;;;18.48;63.75
81897;BME280;71360;43.506;1.500;2023-08-30T08:25:37;98626.34;;;18.58;63.45
81897;BME280;71360;43.506;1.500;2023-08-30T08:28:03;98633.78;;;18.66;63.04
81897;BME280;71360;43.506;1.500;2023-08-30T08:30:28;98632.03;;;18.75;62.79
81897;BME280;71360;43.506;1.500;2023-08-30T08:32:54;98633.16;;;18.82;62.60
81897;BME280;71360;43.506;1.500;2023-08-30T08:35:20;98641.44;;;18.90;62.18
81897;BME280;71360;43.506;1.500;2023-08-30T08:37:45;98643.88;;;18.93;61.90
81897;BME280;71360;43.506;1.500;2023-08-30T08:40:11;98652.53;;;18.97;61.61
81897;BME280;71360;43.506;1.500;2023-08-30T08:42:37;98648.69;;;18.99;61.81
81897;BME280;71360;43.506;1.500;2023-08-30T08:45:03;98654.53;;;19.04;60.98
81897;BME280;71360;43.506;1.500;2023-08-30T08:47:32;98651.81;;;19.04;60.97
81897;BME280;71360;43.506;1.500;2023-08-30T08:49:59;98651.09;;;19.02;60.95
81897;BME280;71360;43.506;1.500;2023-08-30T08:52:29;98656.50;;;19.02;60.78
81897;BME280;71360;43.506;1.500;2023-08-30T08:54:55;98661.94;;;19.02;61.03
81897;BME280;71360;43.506;1.500;2023-08-30T08:57:21;98651.66;;;19.06;60.82
81897;BME280;71360;43.506;1.500;2023-08-30T08:59:46;98663.63;;;19.13;60.66
81897;BME280;71360;43.506;1.500;2023-08-30T09:02:14;98678.16;;;19.22;60.47
81897;BME280;71360;43.506;1.500;2023-08-30T09:04:40;98667.59;;;19.29;60.28
81897;BME280;71360;43.506;1.500;2023-08-30T09:07:06;98662.72;;;19.32;59.66
81897;BME280;71360;43.506;1.500;2023-08-30T09:09:33;98663.59;;;19.33;59.92
81897;BME280;71360;43.506;1.500;2023-08-30T09:11:59;98670.72;;;19.34;59.60
81897;BME280;71360;43.506;1.500;2023-08-30T09:14:25;98678.38;;;19.38;60.04
81897;BME280;71360;43.506;1.500;2023-08-30T09:17:00;98670.69;;;19.44;59.92
81897;BME280;71360;43.506;1.500;2023-08-30T09:19:27;98668.66;;;19.46;60.04
81897;BME280;71360;43.506;1.500;2023-08-30T09:21:57;98675.75;;;19.56;59.65
81897;BME280;71360;43.506;1.500;2023-08-30T09:24:23;98673.72;;;19.68;59.80
81897;BME280;71360;43.506;1.500;2023-08-30T09:26:54;98676.22;;;19.80;59.80
81897;BME280;71360;43.506;1.500;2023-08-30T09:29:21;98674.94;;;19.84;59.20
81897;BME280;71360;43.506;1.500;2023-08-30T09:31:51;98681.59;;;19.89;59.35
81897;BME280;71360;43.506;1.500;2023-08-30T09:34:22;98676.06;;;19.91;59.29
81897;BME280;71360;43.506;1.500;2023-08-30T09:36:48;98674.66;;;19.87;59.00
81897;BME280;71360;43.506;1.500;2023-08-30T09:39:16;98680.94;;;19.87;58.99
81897;BME280;71360;43.506;1.500;2023-08-30T09:41:46;98686.19;;;19.89;58.99
81897;BME280;71360;43.506;1.500;2023-08-30T09:44:16;98686.19;;;19.89;59.22
81897;BME280;71360;43.506;1.500;2023-08-30T09:46:48;98683.31;;;19.90;59.17
81897;BME280;71360;43.506;1.500;2023-08-30T09:49:14;98685.03;;;19.92;59.15
81897;BME280;71360;43.506;1.500;2023-08-30T09:51:41;98689.47;;;19.93;59.48
81897;BME280;71360;43.506;1.500;2023-08-30T09:54:18;98687.91;;;19.90;59.36
81897;BME280;71360;43.506;1.500;2023-08-30T09:56:45;98693.88;;;19.94;59.45
81897;BME280;71360;43.506;1.500;2023-08-30T09:59:12;98687.28;;;19.96;59.26
81897;BME280;71360;43.506;1.500;2023-08-30T10:01:40;98695.16;;;19.99;59.33
81897;BME280;71360;43.506;1.500;2023-08-30T10:04:07;98686.22;;;20.07;59.12
81897;BME280;71360;43.506;1.500;2023-08-30T10:06:35;98688.34;;;20.13;59.08
81897;BME280;71360;43.506;1.500;2023-08-30T10:09:01;98680.44;;;20.20;59.41
81897;BME280;71360;43.506;1.500;2023-08-30T10:11:29;98683.56;;;20.25;59.06
81897;BME280;71360;43.506;1.500;2023-08-30T10:13:58;98673.09;;;20.30;59.08
81897;BME280;71360;43.506;1.500;2023-08-30T10:16:26;98681.31;;;20.38;59.19
81897;BME280;71360;43.506;1.500;2023-08-30T10:18:58;98679.69;;;20.46;58.75
81897;BME280;71360;43.506;1.500;2023-08-30T10:21:27;98674.34;;;20.54;58.89
81897;BME280;71360;43.506;1.500;2023-08-30T10:23:55;98672.38;;;20.64;58.91
81897;BME280;71360;43.506;1.500;2023-08-30T10:26:23;98674.53;;;20.70;58.09
81897;BME280;71360;43.506;1.500;2023-08-30T10:28:52;98674.97;;;20.66;57.88
81897;BME280;71360;43.506;1.500;2023-08-30T10:31:18;98670.72;;;20.63;57.85
81897;BME280;71360;43.506;1.500;2023-08-30T10:33:48;98669.69;;;20.64;58.17
81897;BME280;71360;43.506;1.500;2023-08-30T10:36:20;98670.00;;;20.61;58.09
81897;BME280;71360;43.506;1.500;2023-08-30T10:38:54;98668.84;;;20.64;58.40
81897;BME280;71360;43.506;1.500;2023-08-30T10:41:26;98681.97;;;20.68;58.26
81897;BME280;71360;43.506;1.500;2023-08-30T10:43:55;98677.78;;;20.74;58.71
81897;BME280;71360;43.506;1.500;2023-08-30T10:46:31;98680.03;;;20.79;58.26
81897;BME280;71360;43.506;1.500;2023-08-30T10:49:08;98675.66;;;20.86;58.22
81897;BME280;71360;43.506;1.500;2023-08-30T10:51:36;98675.66;;;20.86;57.96
81897;BME280;71360;43.506;1.500;2023-08-30T10:54:12;98669.94;;;20.89;57.73
81897;BME280;71360;43.506;1.500;2023-08-30T10:59:20;98676.22;;;20.89;57.86
81897;BME280;71360;43.506;1.500;2023-08-30T11:01:46;98671.78;;;20.88;57.85
81897;BME280;71360;43.506;1.500;2023-08-30T11:04:14;98669.06;;;20.88;57.47
81897;BME280;71360;43.506;1.500;2023-08-30T11:06:44;98670.06;;;20.87;57.94
81897;BME280;71360;43.506;1.500;2023-08-30T11:09:13;98662.97;;;20.86;58.10
81897;BME280;71360;43.506;1.500;2023-08-30T11:11:39;98666.69;;;20.85;58.09
81897;BME280;71360;43.506;1.500;2023-08-30T11:14:08;98664.34;;;20.90;58.37
81897;BME280;71360;43.506;1.500;2023-08-30T11:16:37;98660.81;;;20.98;58.49
81897;BME280;71360;43.506;1.500;2023-08-30T11:19:04;98663.28;;;21.10;58.26
81897;BME280;71360;43.506;1.500;2023-08-30T11:21:30;98662.84;;;21.22;58.03
81897;BME280;71360;43.506;1.500;2023-08-30T11:23:56;98661.41;;;21.36;57.73
81897;BME280;71360;43.506;1.500;2023-08-30T11:26:22;98648.94;;;21.52;57.73
81897;BME280;71360;43.506;1.500;2023-08-30T11:28:48;98648.88;;;21.70;57.43
81897;BME280;71360;43.506;1.500;2023-08-30T11:33:54;98640.81;;;22.03;56.62
81897;BME280;71360;43.506;1.500;2023-08-30T11:36:22;98637.81;;;22.14;57.00
81897;BME280;71360;43.506;1.500;2023-08-30T11:38:49;98636.66;;;22.25;56.83
81897;BME280;71360;43.506;1.500;2023-08-30T11:41:14;98634.47;;;22.37;56.99
81897;BME280;71360;43.506;1.500;2023-08-30T11:43:40;98644.88;;;22.50;56.13
81897;BME280;71360;43.506;1.500;2023-08-30T11:46:05;98647.59;;;22.58;55.94
81897;BME280;71360;43.506;1.500;2023-08-30T11:48:31;98642.81;;;22.68;55.92
81897;BME280;71360;43.506;1.500;2023-08-30T11:50:58;98642.31;;;22.81;55.82
81897;BME280;71360;43.506;1.500;2023-08-30T11:53:24;98645.88;;;22.90;54.86
81897;BME280;71360;43.506;1.500;2023-08-30T11:55:50;98635.34;;;22.95;55.21
81897;BME280;71360;43.506;1.500;2023-08-30T11:58:18;98628.34;;;23.01;54.64
81897;BME280;71360;43.506;1.500;2023-08-30T12:00:44;98632.25;;;23.06;55.01
81897;BME280;71360;43.506;1.500;2023-08-30T12:03:13;98626.47;;;23.01;54.70
81897;BME280;71360;43.506;1.500;2023-08-30T12:05:47;98613.19;;;22.90;53.89
81897;BME280;71360;43.506;1.500;2023-08-30T12:08:32;98620.53;;;22.81;54.91
81897;BME280;71360;43.506;1.500;2023-08-30T12:10:58;98622.25;;;22.82;55.33
81897;BME280;71360;43.506;1.500;2023-08-30T12:13:28;98619.69;;;22.81;54.64
81897;BME280;71360;43.506;1.500;2023-08-30T12:15:57;98627.69;;;22.82;54.88
81897;BME280;71360;43.506;1.500;2023-08-30T12:18:24;98628.53;;;22.83;55.02
81897;BME280;71360;43.506;1.500;2023-08-30T12:20:57;98629.06;;;22.86;54.68
81897;BME280;71360;43.506;1.500;2023-08-30T12:23:25;98628.88;;;22.88;54.59
81897;BME280;71360;43.506;1.500;2023-08-30T12:26:17;98630.41;;;22.90;55.08
81897;BME280;71360;43.506;1.500;2023-08-30T12:28:42;98639.06;;;22.94;54.95
81897;BME280;71360;43.506;1.500;2023-08-30T12:31:10;98640.59;;;22.97;54.72
81897;BME280;71360;43.506;1.500;2023-08-30T12:33:37;98635.34;;;22.95;54.30
81897;BME280;71360;43.506;1.500;2023-08-30T12:36:02;98635.50;;;22.93;54.36
81897;BME280;71360;43.506;1.500;2023-08-30T12:38:29;98636.03;;;22.89;53.67
81897;BME280;71360;43.506;1.500;2023-08-30T12:40:55;98633.13;;;22.82;54.56
81897;BME280;71360;43.506;1.500;2023-08-30T12:43:21;98633.63;;;22.86;54.48
81897;BME280;71360;43.506;1.500;2023-08-30T12:45:47;98635.84;;;22.90;55.14
81897;BME280;71360;43.506;1.500;2023-08-30T12:48:14;98639.75;;;22.96;54.59
81897;BME280;71360;43.506;1.500;2023-08-30T12:50:44;98643.84;;;23.00;54.31
81897;BME280;71360;43.506;1.500;2023-08-30T12:53:10;98639.06;;;22.94;53.97
81897;BME280;71360;43.506;1.500;2023-08-30T12:55:35;98650.84;;;22.86;54.30
81897;BME280;71360;43.506;1.500;2023-08-30T12:58:01;98648.63;;;22.82;54.88
81897;BME280;71360;43.506;1.500;2023-08-30T13:00:28;98640.44;;;22.82;54.72
81897;BME280;71360;43.506;1.500;2023-08-30T13:02:54;98642.16;;;22.74;54.27
81897;BME280;71360;43.506;1.500;2023-08-30T13:05:19;98638.25;;;22.69;54.39